Time;durP1;ratioP1;P1;durP2;ratioP2;P2;SDS_P1;SDS_P2;PMS_P1;PMS_P2;Temp;Humidity;BMP_temperature;BMP_pressure;BME280_temperature;BME280_humidity;BME280_pressure;Samples;Min_cycle;Max_cycle;Signal;HPM_P1;HPM_P2
2022/12/08 00:02:06;;;;;;;14.37;12.60;;;5.40;99.90;;;;;;5091142;28;20207;-47
2022/12/08 00:09:20;;;;;;;14.17;12.23;;;5.40;99.90;;;;;;5090659;28;20273;-49
2022/12/08 00:10:01;;;;;;;14.37;11.80;;;5.50;99.90;;;;;;5091132;28;20676;-48
2022/12/08 00:12:26;;;;;;;14.43;11.73;;;5.80;99.90;;;;;;5091528;28;20173;-46
2022/12/08 00:14:53;;;;;;;15.67;12.47;;;6.00;99.90;;;;;;5090873;28;20181;-48
2022/12/08 00:17:19;;;;;;;15.30;12.03;;;6.10;99.90;;;;;;5091104;28;20194;-48
2022/12/08 00:19:45;;;;;;;13.70;11.67;;;6.00;99.90;;;;;;5091436;28;20245;-54
2022/12/08 00:22:11;;;;;;;14.37;11.73;;;5.90;99.90;;;;;;5089886;28;20226;-50
2022/12/08 00:24:38;;;;;;;14.70;12.77;;;6.00;99.90;;;;;;5090479;28;20185;-52
2022/12/08 00:27:05;;;;;;;14.20;12.70;;;6.00;99.90;;;;;;5090449;28;20218;-48
2022/12/08 00:29:31;;;;;;;15.40;13.00;;;6.00;99.90;;;;;;5091628;28;20643;-52
2022/12/08 00:31:56;;;;;;;13.47;12.07;;;6.00;99.90;;;;;;5094903;28;20244;-47
2022/12/08 00:34:22;;;;;;;14.13;11.50;;;5.90;99.90;;;;;;5094965;28;20190;-46
2022/12/08 00:36:48;;;;;;;13.90;11.57;;;6.00;99.90;;;;;;5095001;28;20250;-53
2022/12/08 00:39:15;;;;;;;13.40;11.00;;;6.00;99.90;;;;;;5094761;28;20161;-54
2022/12/08 00:44:24;;;;;;;15.93;12.53;;;5.90;99.90;;;;;;5094744;28;20188;-48
2022/12/08 00:46:50;;;;;;;15.07;12.30;;;5.60;99.90;;;;;;5095058;28;20701;-48
2022/12/08 00:49:16;;;;;;;13.97;12.23;;;5.60;99.90;;;;;;5094464;28;20634;-51
2022/12/08 00:51:42;;;;;;;14.37;12.07;;;5.50;99.90;;;;;;5094690;28;20352;-49
2022/12/08 00:54:08;;;;;;;15.90;12.47;;;5.30;99.90;;;;;;5094098;28;20236;-46
2022/12/08 00:56:34;;;;;;;15.37;13.07;;;5.40;99.90;;;;;;5093326;28;20213;-47
2022/12/08 00:59:00;;;;;;;15.33;12.60;;;5.40;99.90;;;;;;5094403;28;20170;-50
2022/12/08 01:01:26;;;;;;;12.83;11.30;;;5.70;99.90;;;;;;5094388;28;20166;-47
2022/12/08 01:03:52;;;;;;;15.20;12.07;;;5.80;99.90;;;;;;5094000;28;20189;-48
2022/12/08 01:06:17;;;;;;;14.17;11.90;;;6.00;99.90;;;;;;5094022;28;20165;-49
2022/12/08 01:08:43;;;;;;;13.43;11.80;;;6.20;99.90;;;;;;5094230;28;20174;-48
2022/12/08 01:11:15;;;;;;;12.77;11.13;;;6.30;99.90;;;;;;5093881;28;20265;-50
2022/12/08 01:13:41;;;;;;;13.50;11.70;;;6.30;99.90;;;;;;5094018;28;20639;-46
2022/12/08 01:16:08;;;;;;;14.50;11.67;;;6.30;99.90;;;;;;5093736;28;20162;-47
2022/12/08 01:18:34;;;;;;;16.07;12.23;;;6.40;99.90;;;;;;5094055;28;20171;-49
2022/12/08 01:21:04;;;;;;;24.53;17.57;;;6.40;99.90;;;;;;5094170;28;20168;-50
2022/12/08 01:23:30;;;;;;;18.93;14.87;;;6.40;99.90;;;;;;5092904;28;20230;-53
2022/12/08 01:26:07;;;;;;;14.23;11.87;;;6.30;99.90;;;;;;5075986;28;20249;-48
2022/12/08 01:28:32;;;;;;;13.67;11.60;;;6.30;99.90;;;;;;5093768;28;20162;-47
2022/12/08 01:30:59;;;;;;;13.80;11.93;;;6.30;99.90;;;;;;5093932;28;20188;-47
2022/12/08 01:33:26;;;;;;;14.27;11.70;;;6.40;99.90;;;;;;5093525;28;20174;-50
2022/12/08 01:35:52;;;;;;;14.07;12.40;;;6.40;99.90;;;;;;5093081;28;20182;-51
2022/12/08 01:38:18;;;;;;;12.47;11.17;;;6.50;99.90;;;;;;5075101;28;20208;-48
2022/12/08 01:40:43;;;;;;;12.87;11.10;;;6.50;99.90;;;;;;5093806;28;20308;-54
2022/12/08 01:43:16;;;;;;;13.90;11.73;;;6.40;99.90;;;;;;5093247;28;20231;-51
2022/12/08 01:45:42;;;;;;;14.70;11.50;;;6.40;99.90;;;;;;5093300;28;20213;-48
2022/12/08 01:48:13;;;;;;;14.47;11.47;;;6.40;99.90;;;;;;5093736;28;20166;-50
2022/12/08 01:50:41;;;;;;;13.23;11.40;;;6.40;99.90;;;;;;5093354;28;20211;-51
2022/12/08 01:53:25;;;;;;;13.47;11.83;;;6.40;99.90;;;;;;5092771;28;20169;-47
2022/12/08 01:55:54;;;;;;;14.30;11.83;;;6.40;99.90;;;;;;5093112;28;20189;-50
2022/12/08 01:58:37;;;;;;;14.17;12.03;;;6.40;99.90;;;;;;5093583;28;20227;-50
2022/12/08 02:01:03;;;;;;;13.73;11.70;;;6.40;99.90;;;;;;5075071;28;20572;-48
2022/12/08 02:03:35;;;;;;;14.07;11.87;;;6.50;99.90;;;;;;5093436;28;20182;-47
2022/12/08 02:06:02;;;;;;;14.40;11.77;;;6.50;99.90;;;;;;5092456;28;20577;-49
2022/12/08 02:08:28;;;;;;;14.70;11.60;;;6.50;99.90;;;;;;5074241;28;20176;-48
2022/12/08 02:10:53;;;;;;;13.53;11.83;;;6.50;99.90;;;;;;5092394;28;20166;-49
2022/12/08 02:13:21;;;;;;;14.13;12.20;;;6.50;99.90;;;;;;5092835;28;20176;-47
2022/12/08 02:16:24;;;;;;;13.33;11.23;;;6.40;99.90;;;;;;5093031;28;20662;-53
2022/12/08 02:19:01;;;;;;;14.73;11.43;;;6.40;99.90;;;;;;5092704;28;20165;-46
2022/12/08 02:21:50;;;;;;;13.03;10.80;;;6.40;99.90;;;;;;5093021;28;20208;-49
2022/12/08 02:24:31;;;;;;;13.57;11.63;;;6.50;99.90;;;;;;5091708;28;20220;-51
2022/12/08 02:27:07;;;;;;;12.37;10.77;;;6.50;99.90;;;;;;5093012;28;20166;-51
2022/12/08 02:29:36;;;;;;;12.43;11.13;;;6.50;99.90;;;;;;5092736;28;20165;-49
2022/12/08 02:32:24;;;;;;;13.33;11.20;;;6.50;99.90;;;;;;5093040;28;20258;-46
2022/12/08 02:35:16;;;;;;;13.53;11.17;;;6.50;99.90;;;;;;5092288;28;20189;-48
2022/12/08 02:38:23;;;;;;;13.13;10.87;;;6.50;99.90;;;;;;5092586;28;20202;-51
2022/12/08 02:41:07;;;;;;;14.07;11.27;;;6.40;99.90;;;;;;5092424;28;20170;-48
2022/12/08 02:44:02;;;;;;;18.17;13.27;;;6.40;99.90;;;;;;5092498;28;20180;-57
2022/12/08 02:46:32;;;;;;;16.43;13.77;;;6.30;99.90;;;;;;5040549;28;20181;-51
2022/12/08 02:48:59;;;;;;;15.10;13.10;;;6.40;99.90;;;;;;5092616;28;20215;-47
2022/12/08 02:51:24;;;;;;;13.87;11.87;;;6.50;99.90;;;;;;5091321;28;20219;-54
2022/12/08 02:53:51;;;;;;;16.07;13.40;;;6.40;99.90;;;;;;5090523;28;20576;-50
2022/12/08 02:56:34;;;;;;;14.07;12.50;;;6.50;99.90;;;;;;5092114;28;20170;-48
2022/12/08 02:59:33;;;;;;;17.50;14.33;;;6.40;99.90;;;;;;5092456;28;20561;-52
2022/12/08 03:02:23;;;;;;;16.57;13.70;;;6.20;99.90;;;;;;5092116;28;20158;-49
2022/12/08 03:05:03;;;;;;;14.70;13.07;;;6.20;99.90;;;;;;5091570;28;20198;-53
2022/12/08 03:07:35;;;;;;;15.40;13.40;;;6.30;99.90;;;;;;5091874;28;20180;-50
2022/12/08 03:10:20;;;;;;;14.47;12.63;;;6.40;99.90;;;;;;5091943;28;20198;-48
2022/12/08 03:12:51;;;;;;;15.67;13.50;;;6.40;99.90;;;;;;5091964;28;20512;-51
2022/12/08 03:15:19;;;;;;;15.03;13.10;;;6.00;99.90;;;;;;5092007;28;20287;-52
2022/12/08 03:17:55;;;;;;;13.83;11.67;;;5.60;99.90;;;;;;5091968;28;20190;-47
2022/12/08 03:20:24;;;;;;;13.33;11.83;;;5.60;99.90;;;;;;5090831;28;20165;-51
2022/12/08 03:22:53;;;;;;;14.60;12.20;;;5.70;99.90;;;;;;5092076;28;20215;-46
2022/12/08 03:25:24;;;;;;;13.97;12.07;;;5.80;99.90;;;;;;5091314;28;20192;-48
2022/12/08 03:27:51;;;;;;;15.50;12.87;;;6.00;99.90;;;;;;5092106;28;20162;-51
2022/12/08 03:30:17;;;;;;;13.40;11.60;;;5.90;99.90;;;;;;5091678;28;20268;-52
2022/12/08 03:32:54;;;;;;;14.20;12.30;;;6.00;99.90;;;;;;5091927;28;20638;-51
2022/12/08 03:35:24;;;;;;;13.30;11.23;;;6.10;99.90;;;;;;5090980;28;20274;-51
2022/12/08 03:37:50;;;;;;;11.97;10.63;;;6.10;99.90;;;;;;5090846;28;20473;-48
2022/12/08 03:40:19;;;;;;;13.03;10.63;;;6.10;99.90;;;;;;5091639;28;20219;-50
2022/12/08 03:42:45;;;;;;;12.67;11.03;;;6.00;99.90;;;;;;5091693;28;20219;-47
2022/12/08 03:45:11;;;;;;;13.23;10.20;;;6.00;99.90;;;;;;5091410;28;20186;-49
2022/12/08 03:47:37;;;;;;;15.47;10.97;;;6.00;99.90;;;;;;5091239;28;20174;-46
2022/12/08 03:50:03;;;;;;;11.93;10.20;;;6.10;99.90;;;;;;5091357;28;20177;-49
2022/12/08 03:52:28;;;;;;;12.67;11.17;;;6.10;99.90;;;;;;5073374;28;20181;-51
2022/12/08 03:54:54;;;;;;;13.20;11.80;;;6.00;99.90;;;;;;5090577;28;20193;-48
2022/12/08 03:57:20;;;;;;;12.43;10.93;;;6.00;99.90;;;;;;5091187;28;20205;-48
2022/12/08 03:59:46;;;;;;;12.63;11.30;;;6.00;99.90;;;;;;5091554;28;20185;-47
2022/12/08 04:02:11;;;;;;;12.07;10.73;;;6.00;99.90;;;;;;5091497;28;20204;-48
2022/12/08 04:04:37;;;;;;;13.63;10.43;;;6.00;99.90;;;;;;5139804;22;20535;-57
2022/12/08 04:07:02;;;;;;;13.67;11.73;;;6.10;99.90;;;;;;5074594;28;20174;-54
2022/12/08 04:09:28;;;;;;;15.83;12.77;;;6.00;99.90;;;;;;5074796;28;20162;-54
2022/12/08 04:11:53;;;;;;;14.50;12.43;;;5.90;99.90;;;;;;5075497;28;20179;-53
2022/12/08 04:14:19;;;;;;;16.10;12.83;;;5.50;99.90;;;;;;5074643;28;20615;-56
2022/12/08 04:16:45;;;;;;;13.33;11.40;;;5.40;99.90;;;;;;5075036;28;20225;-54
2022/12/08 04:19:10;;;;;;;13.87;11.80;;;5.70;99.90;;;;;;5075160;28;20197;-56
2022/12/08 04:21:36;;;;;;;15.23;12.40;;;5.80;99.90;;;;;;5074687;28;20166;-55
2022/12/08 04:24:01;;;;;;;13.13;11.27;;;5.70;99.90;;;;;;5074759;28;20171;-55
2022/12/08 04:26:27;;;;;;;15.57;11.80;;;5.70;99.90;;;;;;5074714;28;20193;-57
2022/12/08 04:28:53;;;;;;;12.97;10.93;;;5.80;99.90;;;;;;5075037;28;20220;-57
2022/12/08 04:31:18;;;;;;;13.33;11.57;;;5.80;99.90;;;;;;5074492;28;20194;-55
2022/12/08 04:33:44;;;;;;;13.33;10.90;;;5.80;99.90;;;;;;5074723;28;20162;-58
2022/12/08 04:36:10;;;;;;;14.93;11.97;;;5.90;99.90;;;;;;5074172;28;20186;-56
2022/12/08 04:38:35;;;;;;;15.90;11.93;;;6.00;99.90;;;;;;5074866;28;20600;-53
2022/12/08 04:41:01;;;;;;;14.23;12.10;;;6.00;99.90;;;;;;5074875;28;20171;-57
2022/12/08 04:43:27;;;;;;;13.03;11.63;;;6.00;99.90;;;;;;5074365;28;20225;-57
2022/12/08 04:45:52;;;;;;;13.87;11.60;;;6.00;99.90;;;;;;5074411;28;20469;-54
2022/12/08 04:48:18;;;;;;;13.20;11.50;;;6.00;99.90;;;;;;5074398;28;20284;-56
2022/12/08 04:50:44;;;;;;;15.47;12.00;;;6.00;99.90;;;;;;5074292;28;20525;-55
2022/12/08 04:53:11;;;;;;;15.50;12.23;;;6.10;99.90;;;;;;5073851;28;20331;-59
2022/12/08 04:55:40;;;;;;;14.10;12.33;;;6.10;99.90;;;;;;5074180;28;20190;-53
2022/12/08 04:58:06;;;;;;;13.60;11.07;;;6.10;99.90;;;;;;5074304;28;20647;-54
2022/12/08 05:00:32;;;;;;;15.47;11.97;;;6.10;99.90;;;;;;5074097;28;20166;-57
2022/12/08 05:02:58;;;;;;;15.53;13.03;;;6.10;99.90;;;;;;5074376;28;20171;-56
2022/12/08 05:05:23;;;;;;;15.13;12.20;;;6.10;99.90;;;;;;5073167;28;20359;-55
2022/12/08 05:07:49;;;;;;;15.87;12.33;;;6.20;99.90;;;;;;5074010;28;20170;-57
2022/12/08 05:10:15;;;;;;;14.50;12.33;;;6.20;99.90;;;;;;5073435;28;20193;-57
2022/12/08 05:12:40;;;;;;;13.97;12.33;;;6.30;99.90;;;;;;5074173;28;20204;-55
2022/12/08 05:15:06;;;;;;;14.50;11.80;;;6.20;99.90;;;;;;5073379;28;20231;-53
2022/12/08 05:17:32;;;;;;;14.77;12.23;;;6.30;99.90;;;;;;5072914;28;20233;-57
2022/12/08 05:19:57;;;;;;;14.47;11.57;;;6.30;99.90;;;;;;5073874;28;20228;-57
2022/12/08 05:22:23;;;;;;;14.27;12.13;;;6.30;99.90;;;;;;5073628;28;20194;-57
2022/12/08 05:24:49;;;;;;;17.60;14.20;;;6.20;99.90;;;;;;5073647;28;20222;-56
2022/12/08 05:27:15;;;;;;;16.00;12.90;;;6.20;99.90;;;;;;5073689;28;20182;-54
2022/12/08 05:29:41;;;;;;;13.30;11.53;;;6.10;99.90;;;;;;5071456;28;20179;-57
2022/12/08 05:32:06;;;;;;;16.80;11.63;;;6.20;99.90;;;;;;5072319;28;20553;-55
2022/12/08 05:34:32;;;;;;;12.93;11.10;;;6.20;99.90;;;;;;5071681;28;20194;-56
2022/12/08 05:36:57;;;;;;;13.90;11.13;;;6.20;99.90;;;;;;5072955;28;20194;-57
2022/12/08 05:39:23;;;;;;;16.03;12.07;;;6.20;99.90;;;;;;5073522;28;20165;-58
2022/12/08 05:41:49;;;;;;;18.13;12.77;;;6.10;99.90;;;;;;5055676;28;20197;-57
2022/12/08 05:44:14;;;;;;;13.97;11.70;;;6.00;99.90;;;;;;5072465;28;20202;-55
2022/12/08 05:46:40;;;;;;;14.53;12.03;;;6.10;99.90;;;;;;5073661;28;20646;-56
2022/12/08 05:49:05;;;;;;;14.37;11.53;;;5.90;99.90;;;;;;5073066;28;20178;-57
2022/12/08 05:51:31;;;;;;;13.53;11.87;;;5.90;99.90;;;;;;5072580;28;20177;-55
2022/12/08 05:53:57;;;;;;;14.07;11.90;;;6.00;99.90;;;;;;5072754;28;20621;-57
2022/12/08 05:56:23;;;;;;;14.27;11.80;;;6.00;99.90;;;;;;5073342;28;20257;-56
2022/12/08 05:58:49;;;;;;;13.97;12.33;;;6.00;99.90;;;;;;5073012;28;20167;-57
2022/12/08 06:01:26;;;;;;;15.03;12.83;;;6.10;99.90;;;;;;5073074;28;20308;-57
2022/12/08 06:03:53;;;;;;;13.57;11.37;;;6.10;99.90;;;;;;5073091;28;20749;-56
2022/12/08 06:06:19;;;;;;;13.87;11.73;;;6.10;99.90;;;;;;5072558;28;20202;-55
2022/12/08 06:08:45;;;;;;;14.20;11.73;;;5.90;99.90;;;;;;5073067;28;20171;-56
2022/12/08 06:11:18;;;;;;;14.93;12.37;;;5.90;99.90;;;;;;5072499;28;20278;-59
2022/12/08 06:13:44;;;;;;;16.17;12.30;;;5.60;99.90;;;;;;5072578;28;20277;-57
2022/12/08 06:16:09;;;;;;;15.47;11.67;;;;;;;;;;5072357;28;20269;-55
2022/12/08 06:18:35;;;;;;;14.23;12.33;;;5.90;99.90;;;;;;5072280;28;20589;-55
2022/12/08 06:21:09;;;;;;;14.33;12.17;;;6.00;99.90;;;;;;5072460;28;20193;-55
2022/12/08 06:23:35;;;;;;;15.53;11.97;;;5.90;99.90;;;;;;5072614;28;20526;-55
2022/12/08 06:26:03;;;;;;;15.33;12.33;;;6.00;99.90;;;;;;5072397;28;20285;-56
2022/12/08 06:28:30;;;;;;;15.17;11.87;;;6.00;99.90;;;;;;5054148;28;20174;-56
2022/12/08 06:30:55;;;;;;;13.90;11.67;;;6.10;99.90;;;;;;5072849;28;20170;-56
2022/12/08 06:33:21;;;;;;;14.27;11.77;;;6.00;99.90;;;;;;5070735;28;20174;-55
2022/12/08 06:35:47;;;;;;;15.70;11.70;;;6.00;99.90;;;;;;5071452;28;20198;-56
2022/12/08 06:38:12;;;;;;;13.93;11.63;;;6.10;99.90;;;;;;5071916;28;20224;-56
2022/12/08 06:40:38;;;;;;;13.83;11.80;;;6.10;99.90;;;;;;5072423;28;20174;-57
2022/12/08 06:43:04;;;;;;;13.50;12.10;;;6.10;99.90;;;;;;5072494;28;20163;-56
2022/12/08 06:45:29;;;;;;;15.47;12.67;;;6.10;99.90;;;;;;5071394;28;20271;-57
2022/12/08 06:47:55;;;;;;;15.40;12.47;;;6.00;99.90;;;;;;5053495;28;20258;-53
2022/12/08 06:50:20;;;;;;;13.57;11.80;;;6.00;99.90;;;;;;5051875;28;20346;-56
2022/12/08 06:52:46;;;;;;;14.43;12.30;;;6.00;99.90;;;;;;5056515;28;20182;-53
2022/12/08 06:55:11;;;;;;;15.70;12.60;;;6.00;99.90;;;;;;5070664;28;20200;-58
2022/12/08 06:57:37;;;;;;;17.13;13.57;;;6.00;99.90;;;;;;5071442;28;20613;-53
2022/12/08 07:00:04;;;;;;;14.77;12.50;;;6.00;99.90;;;;;;5071997;28;20257;-53
2022/12/08 07:02:30;;;;;;;16.87;13.30;;;6.00;99.90;;;;;;5071054;28;20170;-57
2022/12/08 07:04:55;;;;;;;14.50;12.37;;;5.90;99.90;;;;;;5070920;28;20605;-55
2022/12/08 07:07:21;;;;;;;17.50;12.80;;;5.90;99.90;;;;;;5070289;28;20712;-53
2022/12/08 07:09:46;;;;;;;19.77;14.03;;;6.00;99.90;;;;;;5071651;28;20530;-55
2022/12/08 07:12:12;;;;;;;16.20;12.97;;;6.00;99.90;;;;;;5071133;28;20244;-55
2022/12/08 07:14:38;;;;;;;17.33;13.90;;;6.10;99.90;;;;;;5070845;28;20278;-54
2022/12/08 07:17:03;;;;;;;23.80;19.27;;;6.30;99.90;;;;;;5069694;28;20194;-53
2022/12/08 07:19:29;;;;;;;17.83;14.63;;;6.20;99.90;;;;;;5071065;28;20186;-54
2022/12/08 07:21:55;;;;;;;38.77;29.37;;;6.20;99.90;;;;;;5068454;28;20194;-53
2022/12/08 07:24:20;;;;;;;25.63;18.50;;;6.20;99.90;;;;;;5050075;28;20174;-56
2022/12/08 07:26:46;;;;;;;16.17;13.70;;;6.20;99.90;;;;;;5069556;28;20647;-57
2022/12/08 07:29:11;;;;;;;16.87;13.37;;;6.20;99.90;;;;;;5069458;28;20178;-55
2022/12/08 07:31:37;;;;;;;32.20;26.00;;;6.20;99.90;;;;;;5069648;28;20185;-52
2022/12/08 07:34:03;;;;;;;26.47;22.83;;;6.30;99.90;;;;;;5070848;28;20304;-55
2022/12/08 07:36:28;;;;;;;15.20;12.43;;;6.30;99.90;;;;;;5070506;28;20216;-52
2022/12/08 07:38:54;;;;;;;13.73;12.13;;;6.20;99.90;;;;;;5070985;28;20654;-52
2022/12/08 07:41:22;;;;;;;22.20;18.30;;;6.20;99.90;;;;;;5070811;28;20175;-51
2022/12/08 07:43:48;;;;;;;40.07;31.03;;;6.20;99.90;;;;;;5053106;28;20170;-53
2022/12/08 07:46:16;;;;;;;16.67;13.60;;;6.30;99.90;;;;;;5071016;28;20195;-52
2022/12/08 07:48:42;;;;;;;18.07;15.20;;;6.20;99.90;;;;;;5070699;28;20193;-52
2022/12/08 07:51:07;;;;;;;18.63;16.10;;;6.00;99.90;;;;;;5070319;28;20584;-53
2022/12/08 07:53:33;;;;;;;17.43;13.97;;;6.00;99.90;;;;;;5070121;28;20177;-57
2022/12/08 07:55:59;;;;;;;17.03;14.20;;;6.10;99.90;;;;;;5070931;28;20296;-55
2022/12/08 07:58:25;;;;;;;15.30;13.53;;;6.20;99.90;;;;;;5070792;28;20209;-52
2022/12/08 08:00:51;;;;;;;53.03;40.17;;;6.30;99.90;;;;;;5068947;28;20186;-56
2022/12/08 08:03:16;;;;;;;27.67;21.17;;;6.30;99.90;;;;;;5070723;28;20186;-52
2022/12/08 08:05:43;;;;;;;16.50;13.70;;;6.40;99.90;;;;;;5066678;28;20550;-56
2022/12/08 08:08:09;;;;;;;15.00;12.47;;;6.40;99.90;;;;;;5070769;28;20179;-53
2022/12/08 08:10:35;;;;;;;15.85;13.38;;;6.40;99.90;;;;;;5068923;28;20430;-54
2022/12/08 08:13:00;;;;;;;13.23;11.83;;;6.40;99.90;;;;;;5070141;28;20170;-54
2022/12/08 08:15:26;;;;;;;14.77;12.73;;;6.40;99.90;;;;;;5070182;28;20256;-53
2022/12/08 08:17:52;;;;;;;14.63;12.33;;;6.30;99.90;;;;;;5070374;28;20817;-54
2022/12/08 08:20:19;;;;;;;15.43;12.63;;;6.50;99.90;;;;;;5070828;28;20532;-53
2022/12/08 08:22:46;;;;;;;14.13;12.50;;;6.60;99.90;;;;;;5069780;28;20201;-53
2022/12/08 08:25:13;;;;;;;14.27;12.70;;;6.60;99.90;;;;;;5052418;28;20197;-52
2022/12/08 08:27:39;;;;;;;13.60;11.77;;;6.70;99.90;;;;;;5070649;28;20170;-57
2022/12/08 08:30:10;;;;;;;14.27;12.00;;;6.70;99.90;;;;;;5070634;28;20174;-52
2022/12/08 08:32:36;;;;;;;15.50;13.03;;;6.80;99.90;;;;;;5070567;28;20167;-57
2022/12/08 08:35:01;;;;;;;15.77;13.43;;;6.90;99.90;;;;;;5070022;28;20201;-55
2022/12/08 08:37:27;;;;;;;15.97;12.60;;;6.90;99.90;;;;;;5070008;28;20199;-52
2022/12/08 08:39:53;;;;;;;17.70;13.50;;;7.20;99.90;;;;;;5070437;28;20163;-52
2022/12/08 08:42:18;;;;;;;13.90;12.17;;;6.80;99.90;;;;;;5070878;28;20170;-53
2022/12/08 08:44:44;;;;;;;14.30;12.67;;;6.80;99.90;;;;;;5070204;28;20269;-55
2022/12/08 08:47:10;;;;;;;18.10;12.17;;;6.90;99.90;;;;;;5070817;28;20213;-54
2022/12/08 08:49:36;;;;;;;17.73;13.70;;;7.00;99.90;;;;;;5070611;28;20541;-52
2022/12/08 08:52:03;;;;;;;16.17;13.17;;;6.80;99.90;;;;;;5073626;28;20249;-53
2022/12/08 08:54:29;;;;;;;16.20;13.43;;;6.90;99.90;;;;;;5074359;28;20565;-53
2022/12/08 08:56:57;;;;;;;23.10;17.93;;;7.00;99.90;;;;;;5074220;28;20198;-53
2022/12/08 08:59:22;;;;;;;16.87;13.83;;;7.00;99.90;;;;;;5074371;28;20163;-52
2022/12/08 09:01:48;;;;;;;17.97;15.73;;;7.00;99.90;;;;;;5074061;28;20216;-52
2022/12/08 09:04:14;;;;;;;24.97;22.37;;;7.10;99.90;;;;;;5073822;28;20697;-55
2022/12/08 09:06:39;;;;;;;20.43;17.60;;;7.10;99.90;;;;;;5074020;28;20187;-55
2022/12/08 09:09:05;;;;;;;21.90;19.77;;;7.10;99.90;;;;;;5074223;28;20704;-51
2022/12/08 09:11:31;;;;;;;17.57;14.77;;;7.20;99.90;;;;;;5073949;28;20171;-54
2022/12/08 09:13:57;;;;;;;16.37;14.00;;;7.20;99.90;;;;;;5074038;28;20177;-53
2022/12/08 09:16:23;;;;;;;16.77;13.87;;;7.30;99.90;;;;;;5074124;28;20199;-54
2022/12/08 09:18:48;;;;;;;18.80;15.43;;;7.40;99.90;;;;;;5073903;28;20639;-54
2022/12/08 09:21:19;;;;;;;19.13;16.53;;;7.20;99.90;;;;;;5073991;28;20611;-56
2022/12/08 09:23:45;;;;;;;16.43;14.33;;;7.10;99.90;;;;;;5073445;28;20225;-55
2022/12/08 09:26:10;;;;;;;16.63;14.77;;;7.30;99.90;;;;;;5074013;28;20692;-52
2022/12/08 09:28:36;;;;;;;16.83;13.90;;;7.20;99.90;;;;;;5073609;28;20194;-52
2022/12/08 09:31:02;;;;;;;15.77;13.87;;;7.30;99.90;;;;;;5073946;28;20176;-53
2022/12/08 09:33:28;;;;;;;15.27;13.23;;;7.30;99.90;;;;;;5073390;28;20261;-54
2022/12/08 09:35:54;;;;;;;17.03;14.27;;;7.20;99.90;;;;;;5073634;28;20196;-55
2022/12/08 09:38:20;;;;;;;16.37;13.47;;;7.30;99.90;;;;;;5073343;28;20206;-57
2022/12/08 09:40:50;;;;;;;14.87;13.07;;;7.30;99.90;;;;;;5073715;28;20254;-53
2022/12/08 09:43:36;;;;;;;18.10;14.87;;;7.10;99.90;;;;;;5073771;28;20171;-55
2022/12/08 09:46:06;;;;;;;20.60;15.27;;;7.10;99.90;;;;;;5073291;28;20182;-57
2022/12/08 09:48:36;;;;;;;17.53;14.37;;;7.10;99.90;;;;;;5073510;28;20263;-55
2022/12/08 09:51:03;;;;;;;15.47;13.27;;;7.20;99.90;;;;;;5073306;28;20174;-55
2022/12/08 09:53:49;;;;;;;15.00;13.40;;;7.00;99.90;;;;;;5073396;28;20175;-53
2022/12/08 09:56:18;;;;;;;15.73;13.27;;;7.00;99.90;;;;;;5072979;28;20265;-56
2022/12/08 09:59:01;;;;;;;16.37;14.10;;;7.00;99.90;;;;;;5073303;28;20194;-56
2022/12/08 10:01:30;;;;;;;17.67;15.27;;;7.10;99.90;;;;;;5073144;28;20174;-56
2022/12/08 10:03:56;;;;;;;16.17;13.83;;;7.20;99.90;;;;;;5072523;28;20171;-55
2022/12/08 10:06:32;;;;;;;17.10;15.00;;;7.40;99.90;;;;;;5116449;22;20718;-51
2022/12/08 10:09:35;;;;;;;15.23;13.47;;;7.60;99.90;;;;;;5072554;28;20216;-51
2022/12/08 10:12:23;;;;;;;17.67;15.83;;;7.80;99.90;;;;;;5072338;28;20319;-47
2022/12/08 10:15:30;;;;;;;16.07;13.93;;;7.80;99.90;;;;;;5072303;28;20194;-47
2022/12/08 10:17:59;;;;;;;14.83;13.23;;;7.60;99.90;;;;;;5071961;28;20216;-51
2022/12/08 10:20:33;;;;;;;15.27;13.47;;;7.60;99.90;;;;;;5072315;28;20184;-46
2022/12/08 10:23:09;;;;;;;15.00;13.40;;;7.70;99.90;;;;;;5072101;28;20162;-51
2022/12/08 10:25:57;;;;;;;16.83;13.90;;;7.50;99.90;;;;;;5071980;28;20262;-51
2022/12/08 10:28:23;;;;;;;15.70;13.50;;;7.70;99.90;;;;;;5071301;28;20558;-49
2022/12/08 10:30:48;;;;;;;15.03;13.43;;;7.80;99.90;;;;;;5072504;28;20253;-46
2022/12/08 10:33:20;;;;;;;16.40;14.37;;;7.90;99.90;;;;;;5072029;28;20171;-46
2022/12/08 10:36:05;;;;;;;15.60;13.93;;;8.00;99.90;;;;;;5071844;28;20190;-47
2022/12/08 10:38:33;;;;;;;17.23;14.30;;;8.30;99.90;;;;;;5071822;28;20202;-49
2022/12/08 10:41:08;;;;;;;14.67;12.93;;;8.30;99.90;;;;;;5072297;28;20574;-47
2022/12/08 10:43:49;;;;;;;15.73;13.73;;;8.10;99.90;;;;;;5071774;28;20382;-49
2022/12/08 10:46:22;;;;;;;16.73;14.37;;;8.10;99.90;;;;;;5072055;28;20187;-47
2022/12/08 10:49:07;;;;;;;15.57;13.87;;;8.10;99.90;;;;;;5071918;28;20242;-47
2022/12/08 10:51:33;;;;;;;15.47;13.87;;;8.30;99.90;;;;;;5071566;28;20651;-46
2022/12/08 10:53:58;;;;;;;15.47;13.87;;;8.40;99.90;;;;;;5071673;28;20181;-50
2022/12/08 10:56:29;;;;;;;15.90;14.20;;;8.70;99.90;;;;;;5071597;28;20207;-47
2022/12/08 10:59:15;;;;;;;17.87;14.33;;;8.70;99.90;;;;;;5071690;28;20174;-46
2022/12/08 11:01:43;;;;;;;16.43;14.73;;;8.80;99.90;;;;;;5071560;28;20162;-46
2022/12/08 11:04:14;;;;;;;18.17;16.00;;;8.80;99.90;;;;;;5071522;28;20509;-49
2022/12/08 11:06:41;;;;;;;15.17;13.57;;;8.70;99.90;;;;;;5071204;28;20280;-46
2022/12/08 11:09:19;;;;;;;16.03;14.13;;;8.90;99.90;;;;;;5071629;28;20178;-47
2022/12/08 11:11:54;;;;;;;15.93;14.23;;;9.10;99.90;;;;;;5071418;28;20174;-46
2022/12/08 11:14:31;;;;;;;16.27;14.37;;;9.20;99.90;;;;;;5070520;28;20166;-50
2022/12/08 11:17:20;;;;;;;16.07;14.37;;;9.20;99.90;;;;;;5071353;28;20285;-48
2022/12/08 11:20:18;;;;;;;14.87;13.27;;;9.30;99.90;;;;;;5071459;28;20319;-47
2022/12/08 11:22:49;;;;;;;14.67;13.17;;;9.70;99.90;;;;;;5071393;28;20193;-47
2022/12/08 11:25:20;;;;;;;14.23;12.73;;;10.20;99.90;;;;;;5070945;28;20237;-46
2022/12/08 11:27:48;;;;;;;14.43;12.93;;;10.60;99.90;;;;;;5071151;28;20532;-49
2022/12/08 11:30:24;;;;;;;13.57;12.17;;;10.60;99.90;;;;;;5071405;28;20170;-46
2022/12/08 11:32:55;;;;;;;13.90;12.40;;;10.70;99.90;;;;;;5071143;28;20162;-46
2022/12/08 11:35:28;;;;;;;14.83;12.93;;;11.00;99.90;;;;;;5071083;28;20551;-46
2022/12/08 11:38:01;;;;;;;15.27;13.67;;;11.20;99.90;;;;;;5070967;28;20213;-47
2022/12/08 11:40:42;;;;;;;14.23;12.73;;;10.80;99.90;;;;;;5071218;28;20173;-49
2022/12/08 11:43:27;;;;;;;14.53;12.97;;;10.30;99.90;;;;;;5071188;28;20249;-48
2022/12/08 11:45:58;;;;;;;13.17;11.77;;;10.20;99.90;;;;;;5070990;28;20194;-49
2022/12/08 11:48:50;;;;;;;14.40;12.90;;;10.20;99.90;;;;;;5071282;28;20194;-54
2022/12/08 11:51:28;;;;;;;13.23;11.83;;;10.10;99.90;;;;;;5071517;28;20167;-47
2022/12/08 11:54:47;;;;;;;13.57;12.17;;;10.30;99.90;;;;;;5071151;28;20170;-48
2022/12/08 11:57:15;;;;;;;14.33;12.57;;;10.30;99.90;;;;;;4970280;28;20210;-47
2022/12/08 11:59:48;;;;;;;15.80;13.17;;;10.30;99.90;;;;;;4969955;28;20181;-51
2022/12/08 12:02:17;;;;;;;13.43;12.03;;;10.20;99.90;;;;;;4970433;28;20189;-49
2022/12/08 12:05:04;;;;;;;12.93;11.63;;;10.30;99.90;;;;;;4969882;28;20186;-50
2022/12/08 12:07:47;;;;;;;14.97;13.23;;;10.20;99.90;;;;;;4970368;28;20188;-52
2022/12/08 12:10:40;;;;;;;13.40;11.97;;;10.10;99.90;;;;;;4970250;28;20178;-49
2022/12/08 12:13:23;;;;;;;12.07;10.67;;;10.20;99.90;;;;;;4970319;28;20208;-47
2022/12/08 12:16:09;;;;;;;13.50;11.50;;;10.40;99.90;;;;;;4969619;28;20201;-48
2022/12/08 12:18:46;;;;;;;14.23;12.50;;;10.50;99.90;;;;;;4969940;28;20210;-46
2022/12/08 12:21:24;;;;;;;14.77;13.07;;;10.70;99.90;;;;;;4969992;28;20169;-50
2022/12/08 12:23:57;;;;;;;15.67;13.20;;;10.60;99.90;;;;;;4969925;28;20178;-49
2022/12/08 12:26:30;;;;;;;14.17;12.67;;;10.80;99.90;;;;;;4971771;28;20194;-49
2022/12/08 12:29:01;;;;;;;15.60;13.73;;;11.00;99.90;;;;;;4973778;28;20166;-48
2022/12/08 12:31:34;;;;;;;15.27;13.53;;;11.30;99.90;;;;;;5034447;28;20216;-48
2022/12/08 12:34:16;;;;;;;14.13;12.20;;;11.50;99.90;;;;;;5074414;28;20245;-51
2022/12/08 12:37:09;;;;;;;16.00;14.27;;;11.60;99.90;;;;;;5074746;28;20183;-50
2022/12/08 12:39:45;;;;;;;18.30;16.23;;;11.70;99.90;;;;;;5070464;28;20588;-46
2022/12/08 12:43:03;;;;;;;13.83;12.43;;;11.70;99.90;;;;;;5074929;28;20163;-47
2022/12/08 12:45:33;;;;;;;14.97;13.37;;;11.70;99.90;;;;;;5073884;28;20198;-48
2022/12/08 12:47:59;;;;;;;23.33;20.93;;;11.70;99.90;;;;;;5074738;28;20178;-49
2022/12/08 12:50:33;;;;;;;14.40;12.90;;;11.50;99.90;;;;;;5074398;28;20178;-47
2022/12/08 12:53:15;;;;;;;14.00;12.60;;;11.50;99.90;;;;;;5074458;28;20253;-50
2022/12/08 12:55:54;;;;;;;14.10;12.70;;;11.40;99.90;;;;;;5074060;28;20219;-47
2022/12/08 12:58:28;;;;;;;15.67;13.67;;;11.30;99.90;;;;;;5074380;28;20206;-50